sensor_id;sensor_type;location;lat;lon;timestamp;P1;durP1;ratioP1;P2;durP2;ratioP2
10863;SDS011;5485;37.558;126.950;2023-04-03T00:01:15;23.35;;;21.13;;
10863;SDS011;5485;37.558;126.950;2023-04-03T00:03:43;23.15;;;21.05;;
10863;SDS011;5485;37.558;126.950;2023-04-03T00:06:10;22.30;;;20.05;;
10863;SDS011;5485;37.558;126.950;2023-04-03T00:08:38;22.20;;;20.38;;
10863;SDS011;5485;37.558;126.950;2023-04-03T00:11:06;22.52;;;20.35;;
10863;SDS011;5485;37.558;126.950;2023-04-03T00:13:36;22.60;;;20.50;;
10863;SDS011;5485;37.558;126.950;2023-04-03T00:16:05;21.88;;;19.88;;
10863;SDS011;5485;37.558;126.950;2023-04-03T00:18:33;21.33;;;19.52;;
10863;SDS011;5485;37.558;126.950;2023-04-03T00:21:00;21.98;;;19.30;;
10863;SDS011;5485;37.558;126.950;2023-04-03T00:23:27;22.35;;;20.40;;
10863;SDS011;5485;37.558;126.950;2023-04-03T00:25:54;21.73;;;19.83;;
10863;SDS011;5485;37.558;126.950;2023-04-03T00:28:21;21.75;;;19.80;;
10863;SDS011;5485;37.558;126.950;2023-04-03T00:30:49;22.13;;;20.02;;
10863;SDS011;5485;37.558;126.950;2023-04-03T00:33:16;21.55;;;19.65;;
10863;SDS011;5485;37.558;126.950;2023-04-03T00:35:47;21.45;;;19.45;;
10863;SDS011;5485;37.558;126.950;2023-04-03T00:38:14;21.60;;;19.48;;
10863;SDS011;5485;37.558;126.950;2023-04-03T00:40:42;22.35;;;20.27;;
10863;SDS011;5485;37.558;126.950;2023-04-03T00:43:12;22.65;;;20.60;;
10863;SDS011;5485;37.558;126.950;2023-04-03T00:45:46;22.17;;;20.15;;
10863;SDS011;5485;37.558;126.950;2023-04-03T00:48:22;21.92;;;19.95;;
10863;SDS011;5485;37.558;126.950;2023-04-03T00:50:59;21.80;;;19.70;;
10863;SDS011;5485;37.558;126.950;2023-04-03T00:53:46;22.92;;;20.77;;
10863;SDS011;5485;37.558;126.950;2023-04-03T00:56:21;23.15;;;20.90;;
10863;SDS011;5485;37.558;126.950;2023-04-03T00:58:57;22.50;;;20.27;;
10863;SDS011;5485;37.558;126.950;2023-04-03T01:01:40;21.73;;;19.80;;
10863;SDS011;5485;37.558;126.950;2023-04-03T01:04:26;21.25;;;19.35;;
10863;SDS011;5485;37.558;126.950;2023-04-03T01:06:58;22.40;;;20.38;;
10863;SDS011;5485;37.558;126.950;2023-04-03T01:09:33;22.85;;;20.92;;
10863;SDS011;5485;37.558;126.950;2023-04-03T01:14:56;20.55;;;18.65;;
10863;SDS011;5485;37.558;126.950;2023-04-03T01:17:45;20.67;;;18.98;;
10863;SDS011;5485;37.558;126.950;2023-04-03T01:20:32;20.67;;;18.38;;
10863;SDS011;5485;37.558;126.950;2023-04-03T01:28:21;27.65;;;18.75;;
10863;SDS011;5485;37.558;126.950;2023-04-03T01:33:33;18.67;;;16.75;;
10863;SDS011;5485;37.558;126.950;2023-04-03T01:36:01;19.38;;;17.52;;
10863;SDS011;5485;37.558;126.950;2023-04-03T01:38:28;20.98;;;18.38;;
10863;SDS011;5485;37.558;126.950;2023-04-03T01:40:55;21.02;;;18.00;;
10863;SDS011;5485;37.558;126.950;2023-04-03T01:43:25;20.40;;;18.38;;
10863;SDS011;5485;37.558;126.950;2023-04-03T01:45:54;19.20;;;17.35;;
10863;SDS011;5485;37.558;126.950;2023-04-03T01:48:21;18.20;;;16.67;;
10863;SDS011;5485;37.558;126.950;2023-04-03T01:50:48;18.92;;;17.05;;
10863;SDS011;5485;37.558;126.950;2023-04-03T01:53:15;18.75;;;17.02;;
10863;SDS011;5485;37.558;126.950;2023-04-03T01:55:42;20.13;;;17.30;;
10863;SDS011;5485;37.558;126.950;2023-04-03T01:58:09;17.67;;;15.88;;
10863;SDS011;5485;37.558;126.950;2023-04-03T02:00:36;18.90;;;17.10;;
10863;SDS011;5485;37.558;126.950;2023-04-03T02:03:03;18.00;;;16.08;;
10863;SDS011;5485;37.558;126.950;2023-04-03T02:05:34;17.73;;;16.13;;
10863;SDS011;5485;37.558;126.950;2023-04-03T02:08:01;17.27;;;15.50;;
10863;SDS011;5485;37.558;126.950;2023-04-03T02:10:31;17.63;;;15.93;;
10863;SDS011;5485;37.558;126.950;2023-04-03T02:12:58;18.05;;;16.45;;
10863;SDS011;5485;37.558;126.950;2023-04-03T02:15:25;17.20;;;15.52;;
10863;SDS011;5485;37.558;126.950;2023-04-03T02:17:52;18.20;;;15.02;;
10863;SDS011;5485;37.558;126.950;2023-04-03T02:20:19;16.67;;;15.18;;
10863;SDS011;5485;37.558;126.950;2023-04-03T02:22:46;16.23;;;14.75;;
10863;SDS011;5485;37.558;126.950;2023-04-03T02:25:13;19.00;;;15.15;;
10863;SDS011;5485;37.558;126.950;2023-04-03T02:27:43;20.25;;;15.93;;
10863;SDS011;5485;37.558;126.950;2023-04-03T02:30:10;16.48;;;14.75;;
10863;SDS011;5485;37.558;126.950;2023-04-03T02:32:38;16.65;;;15.20;;
10863;SDS011;5485;37.558;126.950;2023-04-03T02:35:06;16.30;;;14.60;;
10863;SDS011;5485;37.558;126.950;2023-04-03T02:37:33;16.73;;;15.13;;
10863;SDS011;5485;37.558;126.950;2023-04-03T02:40:00;18.02;;;16.27;;
10863;SDS011;5485;37.558;126.950;2023-04-03T02:42:28;16.88;;;15.23;;
10863;SDS011;5485;37.558;126.950;2023-04-03T02:44:55;17.83;;;15.93;;
10863;SDS011;5485;37.558;126.950;2023-04-03T02:47:23;16.85;;;15.15;;
10863;SDS011;5485;37.558;126.950;2023-04-03T02:49:50;17.42;;;15.73;;
10863;SDS011;5485;37.558;126.950;2023-04-03T02:52:18;17.80;;;16.10;;
10863;SDS011;5485;37.558;126.950;2023-04-03T02:54:45;17.38;;;15.70;;
10863;SDS011;5485;37.558;126.950;2023-04-03T02:57:11;20.25;;;16.20;;
10863;SDS011;5485;37.558;126.950;2023-04-03T02:59:38;17.58;;;15.77;;
10863;SDS011;5485;37.558;126.950;2023-04-03T03:02:09;18.55;;;16.67;;
10863;SDS011;5485;37.558;126.950;2023-04-03T03:04:36;19.33;;;16.67;;
10863;SDS011;5485;37.558;126.950;2023-04-03T03:07:03;19.25;;;16.52;;
10863;SDS011;5485;37.558;126.950;2023-04-03T03:09:30;18.77;;;16.80;;
10863;SDS011;5485;37.558;126.950;2023-04-03T03:11:58;20.10;;;18.17;;
10863;SDS011;5485;37.558;126.950;2023-04-03T03:14:25;19.15;;;17.15;;
10863;SDS011;5485;37.558;126.950;2023-04-03T03:16:53;19.42;;;17.40;;
10863;SDS011;5485;37.558;126.950;2023-04-03T03:19:20;19.75;;;17.77;;
10863;SDS011;5485;37.558;126.950;2023-04-03T03:21:48;23.48;;;18.20;;
10863;SDS011;5485;37.558;126.950;2023-04-03T03:24:16;20.27;;;18.20;;
10863;SDS011;5485;37.558;126.950;2023-04-03T03:26:43;18.58;;;16.67;;
10863;SDS011;5485;37.558;126.950;2023-04-03T03:29:10;19.45;;;17.40;;
10863;SDS011;5485;37.558;126.950;2023-04-03T03:31:40;19.55;;;17.60;;
10863;SDS011;5485;37.558;126.950;2023-04-03T03:34:07;19.35;;;17.25;;
10863;SDS011;5485;37.558;126.950;2023-04-03T03:36:34;23.05;;;18.38;;
10863;SDS011;5485;37.558;126.950;2023-04-03T03:39:01;20.73;;;18.35;;
10863;SDS011;5485;37.558;126.950;2023-04-03T03:41:28;20.88;;;18.88;;
10863;SDS011;5485;37.558;126.950;2023-04-03T03:43:56;21.23;;;19.02;;
10863;SDS011;5485;37.558;126.950;2023-04-03T03:46:26;21.60;;;19.42;;
10863;SDS011;5485;37.558;126.950;2023-04-03T03:48:53;22.30;;;18.38;;
10863;SDS011;5485;37.558;126.950;2023-04-03T03:51:20;21.70;;;19.40;;
10863;SDS011;5485;37.558;126.950;2023-04-03T03:53:46;22.23;;;20.08;;
10863;SDS011;5485;37.558;126.950;2023-04-03T03:56:13;23.02;;;20.10;;
10863;SDS011;5485;37.558;126.950;2023-04-03T03:58:40;20.90;;;18.75;;
10863;SDS011;5485;37.558;126.950;2023-04-03T04:01:07;20.02;;;18.02;;
10863;SDS011;5485;37.558;126.950;2023-04-03T04:03:35;20.33;;;18.17;;
10863;SDS011;5485;37.558;126.950;2023-04-03T04:06:04;23.70;;;18.60;;
10863;SDS011;5485;37.558;126.950;2023-04-03T04:08:31;21.75;;;19.58;;
10863;SDS011;5485;37.558;126.950;2023-04-03T04:10:57;22.33;;;19.98;;
10863;SDS011;5485;37.558;126.950;2023-04-03T04:13:25;21.73;;;19.52;;
10863;SDS011;5485;37.558;126.950;2023-04-03T04:15:52;22.80;;;20.65;;
10863;SDS011;5485;37.558;126.950;2023-04-03T04:18:19;22.80;;;20.60;;
10863;SDS011;5485;37.558;126.950;2023-04-03T04:20:46;22.65;;;20.27;;
10863;SDS011;5485;37.558;126.950;2023-04-03T04:23:13;21.50;;;19.23;;
10863;SDS011;5485;37.558;126.950;2023-04-03T04:25:43;21.13;;;19.00;;
10863;SDS011;5485;37.558;126.950;2023-04-03T04:28:11;22.05;;;19.70;;
10863;SDS011;5485;37.558;126.950;2023-04-03T04:30:39;22.27;;;20.02;;
10863;SDS011;5485;37.558;126.950;2023-04-03T04:33:06;25.02;;;21.25;;
10863;SDS011;5485;37.558;126.950;2023-04-03T04:35:33;23.63;;;21.10;;
10863;SDS011;5485;37.558;126.950;2023-04-03T04:38:00;24.73;;;22.13;;
10863;SDS011;5485;37.558;126.950;2023-04-03T04:40:28;24.15;;;21.58;;
10863;SDS011;5485;37.558;126.950;2023-04-03T04:42:58;23.65;;;21.30;;
10863;SDS011;5485;37.558;126.950;2023-04-03T04:45:25;24.83;;;22.25;;
10863;SDS011;5485;37.558;126.950;2023-04-03T04:47:54;24.55;;;21.55;;
10863;SDS011;5485;37.558;126.950;2023-04-03T04:50:22;25.10;;;22.63;;
10863;SDS011;5485;37.558;126.950;2023-04-03T04:52:53;25.48;;;20.92;;
10863;SDS011;5485;37.558;126.950;2023-04-03T04:55:20;26.67;;;21.15;;
10863;SDS011;5485;37.558;126.950;2023-04-03T04:57:50;22.52;;;20.33;;
10863;SDS011;5485;37.558;126.950;2023-04-03T05:00:17;23.00;;;20.58;;
10863;SDS011;5485;37.558;126.950;2023-04-03T05:02:44;25.58;;;20.63;;
10863;SDS011;5485;37.558;126.950;2023-04-03T05:05:11;25.38;;;21.70;;
10863;SDS011;5485;37.558;126.950;2023-04-03T05:07:41;23.75;;;21.55;;
10863;SDS011;5485;37.558;126.950;2023-04-03T05:10:08;25.67;;;22.90;;
10863;SDS011;5485;37.558;126.950;2023-04-03T05:12:47;24.85;;;22.42;;
10863;SDS011;5485;37.558;126.950;2023-04-03T05:15:17;24.95;;;22.42;;
10863;SDS011;5485;37.558;126.950;2023-04-03T05:17:44;25.38;;;22.85;;
10863;SDS011;5485;37.558;126.950;2023-04-03T05:20:11;25.13;;;22.63;;
10863;SDS011;5485;37.558;126.950;2023-04-03T05:22:38;24.83;;;22.40;;
10863;SDS011;5485;37.558;126.950;2023-04-03T05:25:05;26.08;;;23.40;;
10863;SDS011;5485;37.558;126.950;2023-04-03T05:27:32;25.27;;;22.88;;
10863;SDS011;5485;37.558;126.950;2023-04-03T05:30:01;29.60;;;23.67;;
10863;SDS011;5485;37.558;126.950;2023-04-03T05:32:28;25.35;;;22.95;;
10863;SDS011;5485;37.558;126.950;2023-04-03T05:34:55;25.95;;;23.15;;
10863;SDS011;5485;37.558;126.950;2023-04-03T05:37:23;35.38;;;23.50;;
10863;SDS011;5485;37.558;126.950;2023-04-03T05:39:50;24.73;;;22.27;;
10863;SDS011;5485;37.558;126.950;2023-04-03T05:42:17;24.80;;;22.55;;
10863;SDS011;5485;37.558;126.950;2023-04-03T05:44:44;25.35;;;22.88;;
10863;SDS011;5485;37.558;126.950;2023-04-03T05:47:16;26.52;;;23.83;;
10863;SDS011;5485;37.558;126.950;2023-04-03T05:49:43;24.98;;;22.35;;
10863;SDS011;5485;37.558;126.950;2023-04-03T05:52:29;25.73;;;22.90;;
10863;SDS011;5485;37.558;126.950;2023-04-03T05:54:58;26.88;;;24.23;;
10863;SDS011;5485;37.558;126.950;2023-04-03T05:57:26;25.00;;;22.60;;
10863;SDS011;5485;37.558;126.950;2023-04-03T05:59:53;24.38;;;21.90;;
10863;SDS011;5485;37.558;126.950;2023-04-03T06:02:21;25.50;;;22.77;;
10863;SDS011;5485;37.558;126.950;2023-04-03T06:04:51;24.77;;;22.30;;
10863;SDS011;5485;37.558;126.950;2023-04-03T06:07:19;23.85;;;21.55;;
10863;SDS011;5485;37.558;126.950;2023-04-03T06:09:48;25.08;;;22.70;;
10863;SDS011;5485;37.558;126.950;2023-04-03T06:12:18;24.95;;;22.38;;
10863;SDS011;5485;37.558;126.950;2023-04-03T06:14:46;25.05;;;22.50;;
10863;SDS011;5485;37.558;126.950;2023-04-03T06:17:13;25.33;;;21.92;;
10863;SDS011;5485;37.558;126.950;2023-04-03T06:19:42;25.00;;;22.67;;
10863;SDS011;5485;37.558;126.950;2023-04-03T06:22:09;24.85;;;22.23;;
10863;SDS011;5485;37.558;126.950;2023-04-03T06:24:37;24.27;;;21.92;;
10863;SDS011;5485;37.558;126.950;2023-04-03T06:27:04;24.58;;;22.10;;
10863;SDS011;5485;37.558;126.950;2023-04-03T06:29:31;24.42;;;21.95;;
10863;SDS011;5485;37.558;126.950;2023-04-03T06:32:00;24.95;;;22.33;;
10863;SDS011;5485;37.558;126.950;2023-04-03T06:34:27;24.73;;;22.35;;
10863;SDS011;5485;37.558;126.950;2023-04-03T06:36:54;25.90;;;22.38;;
10863;SDS011;5485;37.558;126.950;2023-04-03T06:39:22;24.90;;;22.58;;
10863;SDS011;5485;37.558;126.950;2023-04-03T06:41:49;26.63;;;23.48;;
10863;SDS011;5485;37.558;126.950;2023-04-03T06:44:16;24.35;;;22.05;;
10863;SDS011;5485;37.558;126.950;2023-04-03T06:46:44;25.48;;;22.98;;
10863;SDS011;5485;37.558;126.950;2023-04-03T06:49:13;25.55;;;22.95;;
10863;SDS011;5485;37.558;126.950;2023-04-03T06:51:40;24.85;;;22.35;;
10863;SDS011;5485;37.558;126.950;2023-04-03T06:54:07;23.63;;;21.33;;
10863;SDS011;5485;37.558;126.950;2023-04-03T06:56:37;26.15;;;23.40;;
10863;SDS011;5485;37.558;126.950;2023-04-03T06:59:04;24.40;;;22.10;;
10863;SDS011;5485;37.558;126.950;2023-04-03T07:01:31;25.20;;;22.55;;
10863;SDS011;5485;37.558;126.950;2023-04-03T07:03:58;25.00;;;22.55;;
10863;SDS011;5485;37.558;126.950;2023-04-03T07:06:27;25.52;;;22.98;;
10863;SDS011;5485;37.558;126.950;2023-04-03T07:08:54;24.15;;;21.88;;
10863;SDS011;5485;37.558;126.950;2023-04-03T07:11:22;25.67;;;23.20;;
10863;SDS011;5485;37.558;126.950;2023-04-03T07:13:49;24.90;;;22.42;;
10863;SDS011;5485;37.558;126.950;2023-04-03T07:16:16;24.30;;;21.88;;
10863;SDS011;5485;37.558;126.950;2023-04-03T07:18:44;25.23;;;22.80;;
10863;SDS011;5485;37.558;126.950;2023-04-03T07:21:11;24.80;;;22.38;;
10863;SDS011;5485;37.558;126.950;2023-04-03T07:23:39;25.38;;;22.98;;
10863;SDS011;5485;37.558;126.950;2023-04-03T07:26:06;24.30;;;22.00;;
10863;SDS011;5485;37.558;126.950;2023-04-03T07:28:33;24.08;;;20.75;;
10863;SDS011;5485;37.558;126.950;2023-04-03T07:33:31;22.73;;;20.40;;
10863;SDS011;5485;37.558;126.950;2023-04-03T07:35:59;23.52;;;21.23;;
10863;SDS011;5485;37.558;126.950;2023-04-03T07:38:28;29.38;;;22.35;;
10863;SDS011;5485;37.558;126.950;2023-04-03T07:40:55;23.48;;;20.95;;
10863;SDS011;5485;37.558;126.950;2023-04-03T07:43:22;23.42;;;21.02;;
10863;SDS011;5485;37.558;126.950;2023-04-03T07:45:50;24.30;;;21.55;;
10863;SDS011;5485;37.558;126.950;2023-04-03T07:48:18;24.65;;;21.35;;
10863;SDS011;5485;37.558;126.950;2023-04-03T07:50:46;22.92;;;20.58;;
10863;SDS011;5485;37.558;126.950;2023-04-03T07:53:13;24.08;;;21.50;;
10863;SDS011;5485;37.558;126.950;2023-04-03T07:55:40;27.17;;;22.60;;
10863;SDS011;5485;37.558;126.950;2023-04-03T07:58:10;23.55;;;21.15;;
10863;SDS011;5485;37.558;126.950;2023-04-03T08:00:38;23.60;;;21.38;;
10863;SDS011;5485;37.558;126.950;2023-04-03T08:03:06;23.92;;;21.45;;
10863;SDS011;5485;37.558;126.950;2023-04-03T08:05:40;24.02;;;21.60;;
10863;SDS011;5485;37.558;126.950;2023-04-03T08:08:08;24.27;;;21.58;;
10863;SDS011;5485;37.558;126.950;2023-04-03T08:10:37;23.83;;;21.38;;
10863;SDS011;5485;37.558;126.950;2023-04-03T08:13:04;24.55;;;22.15;;
10863;SDS011;5485;37.558;126.950;2023-04-03T08:15:32;22.70;;;20.50;;
10863;SDS011;5485;37.558;126.950;2023-04-03T08:18:02;23.00;;;20.80;;
10863;SDS011;5485;37.558;126.950;2023-04-03T08:20:29;23.98;;;21.55;;
10863;SDS011;5485;37.558;126.950;2023-04-03T08:22:59;21.92;;;19.73;;
10863;SDS011;5485;37.558;126.950;2023-04-03T08:25:26;22.60;;;20.42;;
10863;SDS011;5485;37.558;126.950;2023-04-03T08:27:55;22.23;;;20.10;;
10863;SDS011;5485;37.558;126.950;2023-04-03T08:30:22;25.80;;;20.52;;
10863;SDS011;5485;37.558;126.950;2023-04-03T08:32:48;21.88;;;19.70;;
10863;SDS011;5485;37.558;126.950;2023-04-03T08:35:15;23.48;;;20.83;;
10863;SDS011;5485;37.558;126.950;2023-04-03T08:37:42;23.15;;;20.67;;
10863;SDS011;5485;37.558;126.950;2023-04-03T08:40:13;21.80;;;19.65;;
10863;SDS011;5485;37.558;126.950;2023-04-03T08:48:12;21.98;;;19.67;;
10863;SDS011;5485;37.558;126.950;2023-04-03T08:50:46;22.17;;;19.90;;
10863;SDS011;5485;37.558;126.950;2023-04-03T08:53:22;23.23;;;19.17;;
10863;SDS011;5485;37.558;126.950;2023-04-03T08:55:54;22.13;;;20.13;;
10863;SDS011;5485;37.558;126.950;2023-04-03T08:58:29;22.52;;;19.50;;
10863;SDS011;5485;37.558;126.950;2023-04-03T09:01:00;22.27;;;19.90;;
10863;SDS011;5485;37.558;126.950;2023-04-03T09:03:30;22.10;;;19.80;;
10863;SDS011;5485;37.558;126.950;2023-04-03T09:06:05;21.92;;;19.27;;
10863;SDS011;5485;37.558;126.950;2023-04-03T09:15:20;20.55;;;18.55;;
10863;SDS011;5485;37.558;126.950;2023-04-03T09:18:09;20.75;;;18.63;;
10863;SDS011;5485;37.558;126.950;2023-04-03T09:21:17;20.35;;;18.23;;
10863;SDS011;5485;37.558;126.950;2023-04-03T09:23:52;21.92;;;18.20;;
10863;SDS011;5485;37.558;126.950;2023-04-03T09:29:20;19.33;;;17.52;;
10863;SDS011;5485;37.558;126.950;2023-04-03T09:31:50;20.23;;;17.80;;
10863;SDS011;5485;37.558;126.950;2023-04-03T09:34:23;19.23;;;17.13;;
10863;SDS011;5485;37.558;126.950;2023-04-03T09:36:59;19.25;;;17.38;;
10863;SDS011;5485;37.558;126.950;2023-04-03T09:39:51;19.33;;;17.52;;
10863;SDS011;5485;37.558;126.950;2023-04-03T09:42:21;19.50;;;17.35;;
10863;SDS011;5485;37.558;126.950;2023-04-03T09:44:54;19.05;;;16.98;;
10863;SDS011;5485;37.558;126.950;2023-04-03T09:47:32;19.45;;;17.50;;
10863;SDS011;5485;37.558;126.950;2023-04-03T09:52:44;21.05;;;17.02;;
10863;SDS011;5485;37.558;126.950;2023-04-03T09:55:23;19.17;;;16.90;;
10863;SDS011;5485;37.558;126.950;2023-04-03T09:58:00;22.92;;;20.33;;
10863;SDS011;5485;37.558;126.950;2023-04-03T10:00:38;29.52;;;26.52;;
10863;SDS011;5485;37.558;126.950;2023-04-03T10:03:35;33.05;;;28.17;;
10863;SDS011;5485;37.558;126.950;2023-04-03T10:06:20;31.90;;;28.48;;
10863;SDS011;5485;37.558;126.950;2023-04-03T10:09:03;37.78;;;29.70;;
10863;SDS011;5485;37.558;126.950;2023-04-03T10:11:34;36.83;;;33.13;;
10863;SDS011;5485;37.558;126.950;2023-04-03T10:14:01;37.40;;;33.33;;
10863;SDS011;5485;37.558;126.950;2023-04-03T10:16:41;37.40;;;31.27;;
10863;SDS011;5485;37.558;126.950;2023-04-03T10:19:28;34.67;;;30.92;;
10863;SDS011;5485;37.558;126.950;2023-04-03T10:22:00;36.20;;;32.30;;
10863;SDS011;5485;37.558;126.950;2023-04-03T10:24:52;37.30;;;32.60;;
10863;SDS011;5485;37.558;126.950;2023-04-03T10:36:04;36.78;;;32.42;;
10863;SDS011;5485;37.558;126.950;2023-04-03T10:38:50;37.13;;;31.65;;
10863;SDS011;5485;37.558;126.950;2023-04-03T10:47:34;34.63;;;31.15;;
10863;SDS011;5485;37.558;126.950;2023-04-03T10:50:29;37.00;;;33.22;;
10863;SDS011;5485;37.558;126.950;2023-04-03T10:58:53;41.00;;;33.72;;
10863;SDS011;5485;37.558;126.950;2023-04-03T11:01:25;36.13;;;32.03;;
10863;SDS011;5485;37.558;126.950;2023-04-03T11:03:58;38.80;;;34.33;;
10863;SDS011;5485;37.558;126.950;2023-04-03T11:06:31;40.28;;;32.80;;
10863;SDS011;5485;37.558;126.950;2023-04-03T11:09:28;42.22;;;32.25;;
10863;SDS011;5485;37.558;126.950;2023-04-03T11:12:17;36.60;;;32.75;;
10863;SDS011;5485;37.558;126.950;2023-04-03T11:14:47;35.50;;;31.80;;
10863;SDS011;5485;37.558;126.950;2023-04-03T11:20:10;37.17;;;33.05;;
10863;SDS011;5485;37.558;126.950;2023-04-03T11:25:30;38.20;;;33.25;;
10863;SDS011;5485;37.558;126.950;2023-04-03T11:28:03;36.75;;;31.45;;
10863;SDS011;5485;37.558;126.950;2023-04-03T11:33:15;39.03;;;32.88;;
10863;SDS011;5485;37.558;126.950;2023-04-03T11:38:45;36.40;;;32.55;;
10863;SDS011;5485;37.558;126.950;2023-04-03T11:41:14;36.75;;;33.13;;
10863;SDS011;5485;37.558;126.950;2023-04-03T11:46:56;37.80;;;33.72;;
10863;SDS011;5485;37.558;126.950;2023-04-03T12:05:53;34.78;;;31.05;;
10863;SDS011;5485;37.558;126.950;2023-04-03T12:13:37;30.13;;;27.00;;
10863;SDS011;5485;37.558;126.950;2023-04-03T12:16:24;24.63;;;22.20;;
10863;SDS011;5485;37.558;126.950;2023-04-03T12:19:00;22.25;;;18.98;;
10863;SDS011;5485;37.558;126.950;2023-04-03T12:26:38;24.42;;;20.95;;
10863;SDS011;5485;37.558;126.950;2023-04-03T12:35:08;21.67;;;19.48;;
10863;SDS011;5485;37.558;126.950;2023-04-03T12:48:31;21.42;;;19.20;;
10863;SDS011;5485;37.558;126.950;2023-04-03T12:54:52;23.30;;;17.60;;
10863;SDS011;5485;37.558;126.950;2023-04-03T12:57:18;22.23;;;19.88;;
10863;SDS011;5485;37.558;126.950;2023-04-03T12:59:55;18.92;;;16.95;;
10863;SDS011;5485;37.558;126.950;2023-04-03T13:02:31;16.77;;;15.13;;
10863;SDS011;5485;37.558;126.950;2023-04-03T13:05:05;17.52;;;15.50;;
10863;SDS011;5485;37.558;126.950;2023-04-03T13:07:40;16.42;;;14.90;;
10863;SDS011;5485;37.558;126.950;2023-04-03T13:12:45;15.82;;;14.20;;
10863;SDS011;5485;37.558;126.950;2023-04-03T13:15:17;15.75;;;14.10;;
10863;SDS011;5485;37.558;126.950;2023-04-03T13:18:20;16.15;;;14.63;;
10863;SDS011;5485;37.558;126.950;2023-04-03T13:20:57;16.90;;;15.10;;
10863;SDS011;5485;37.558;126.950;2023-04-03T13:23:29;16.67;;;15.10;;
10863;SDS011;5485;37.558;126.950;2023-04-03T13:25:57;16.67;;;14.77;;
10863;SDS011;5485;37.558;126.950;2023-04-03T13:28:29;20.17;;;14.55;;
10863;SDS011;5485;37.558;126.950;2023-04-03T13:31:01;16.35;;;14.93;;
10863;SDS011;5485;37.558;126.950;2023-04-03T13:33:41;15.38;;;13.85;;
10863;SDS011;5485;37.558;126.950;2023-04-03T13:36:29;15.85;;;14.10;;
10863;SDS011;5485;37.558;126.950;2023-04-03T13:41:42;16.40;;;14.73;;
10863;SDS011;5485;37.558;126.950;2023-04-03T13:46:56;15.07;;;13.68;;
10863;SDS011;5485;37.558;126.950;2023-04-03T13:52:17;16.92;;;15.20;;
10863;SDS011;5485;37.558;126.950;2023-04-03T13:54:56;17.23;;;15.40;;
10863;SDS011;5485;37.558;126.950;2023-04-03T13:57:25;17.33;;;15.60;;
10863;SDS011;5485;37.558;126.950;2023-04-03T13:59:52;16.77;;;15.05;;
10863;SDS011;5485;37.558;126.950;2023-04-03T14:04:56;16.40;;;14.93;;
10863;SDS011;5485;37.558;126.950;2023-04-03T14:07:30;17.33;;;15.43;;
10863;SDS011;5485;37.558;126.950;2023-04-03T14:09:57;18.88;;;15.43;;
10863;SDS011;5485;37.558;126.950;2023-04-03T14:12:35;16.70;;;15.20;;
10863;SDS011;5485;37.558;126.950;2023-04-03T14:15:18;18.40;;;16.60;;
10863;SDS011;5485;37.558;126.950;2023-04-03T14:17:54;18.88;;;16.80;;
10863;SDS011;5485;37.558;126.950;2023-04-03T14:20:23;19.92;;;17.73;;
10863;SDS011;5485;37.558;126.950;2023-04-03T14:22:52;21.90;;;19.42;;
10863;SDS011;5485;37.558;126.950;2023-04-03T14:25:21;20.70;;;18.60;;
10863;SDS011;5485;37.558;126.950;2023-04-03T14:27:52;20.77;;;18.80;;
10863;SDS011;5485;37.558;126.950;2023-04-03T14:32:52;20.20;;;18.27;;
10863;SDS011;5485;37.558;126.950;2023-04-03T14:35:19;21.88;;;19.70;;
10863;SDS011;5485;37.558;126.950;2023-04-03T14:37:47;23.73;;;20.17;;
10863;SDS011;5485;37.558;126.950;2023-04-03T14:40:23;21.20;;;19.08;;
10863;SDS011;5485;37.558;126.950;2023-04-03T14:42:56;21.58;;;19.50;;
10863;SDS011;5485;37.558;126.950;2023-04-03T14:45:24;22.20;;;19.60;;
10863;SDS011;5485;37.558;126.950;2023-04-03T14:47:56;20.55;;;18.65;;
10863;SDS011;5485;37.558;126.950;2023-04-03T14:50:26;20.27;;;18.27;;
10863;SDS011;5485;37.558;126.950;2023-04-03T14:52:54;21.10;;;18.98;;
10863;SDS011;5485;37.558;126.950;2023-04-03T14:55:24;22.25;;;18.95;;
10863;SDS011;5485;37.558;126.950;2023-04-03T14:57:52;22.05;;;19.65;;
10863;SDS011;5485;37.558;126.950;2023-04-03T15:00:20;20.30;;;18.38;;
10863;SDS011;5485;37.558;126.950;2023-04-03T15:02:48;19.98;;;18.00;;
10863;SDS011;5485;37.558;126.950;2023-04-03T15:05:15;19.95;;;18.10;;
10863;SDS011;5485;37.558;126.950;2023-04-03T15:07:43;21.13;;;18.63;;
10863;SDS011;5485;37.558;126.950;2023-04-03T15:10:20;20.75;;;18.50;;
10863;SDS011;5485;37.558;126.950;2023-04-03T15:12:55;21.35;;;19.15;;
10863;SDS011;5485;37.558;126.950;2023-04-03T15:15:23;19.60;;;17.52;;
10863;SDS011;5485;37.558;126.950;2023-04-03T15:17:55;19.48;;;17.35;;
10863;SDS011;5485;37.558;126.950;2023-04-03T15:20:26;20.80;;;18.60;;
10863;SDS011;5485;37.558;126.950;2023-04-03T15:22:55;19.30;;;17.50;;
10863;SDS011;5485;37.558;126.950;2023-04-03T15:25:25;20.25;;;17.38;;
10863;SDS011;5485;37.558;126.950;2023-04-03T15:27:56;21.40;;;17.13;;
10863;SDS011;5485;37.558;126.950;2023-04-03T15:30:23;19.52;;;17.50;;
10863;SDS011;5485;37.558;126.950;2023-04-03T15:32:50;18.33;;;16.63;;
10863;SDS011;5485;37.558;126.950;2023-04-03T15:35:18;18.30;;;16.60;;
10863;SDS011;5485;37.558;126.950;2023-04-03T15:37:45;18.38;;;16.17;;
10863;SDS011;5485;37.558;126.950;2023-04-03T15:40:13;19.13;;;17.15;;
10863;SDS011;5485;37.558;126.950;2023-04-03T15:42:42;19.92;;;17.35;;
10863;SDS011;5485;37.558;126.950;2023-04-03T15:45:09;18.33;;;16.52;;
10863;SDS011;5485;37.558;126.950;2023-04-03T15:47:36;19.42;;;17.48;;
10863;SDS011;5485;37.558;126.950;2023-04-03T15:50:03;18.45;;;16.55;;
10863;SDS011;5485;37.558;126.950;2023-04-03T15:52:33;20.52;;;17.35;;
10863;SDS011;5485;37.558;126.950;2023-04-03T15:55:00;19.08;;;17.10;;
10863;SDS011;5485;37.558;126.950;2023-04-03T15:57:27;18.65;;;16.85;;
10863;SDS011;5485;37.558;126.950;2023-04-03T15:59:53;19.30;;;17.30;;
10863;SDS011;5485;37.558;126.950;2023-04-03T16:02:21;18.98;;;16.85;;
10863;SDS011;5485;37.558;126.950;2023-04-03T16:04:49;17.73;;;16.13;;
10863;SDS011;5485;37.558;126.950;2023-04-03T16:07:15;19.42;;;17.42;;
10863;SDS011;5485;37.558;126.950;2023-04-03T16:09:42;20.17;;;16.63;;
10863;SDS011;5485;37.558;126.950;2023-04-03T16:12:09;19.20;;;16.67;;
10863;SDS011;5485;37.558;126.950;2023-04-03T16:14:37;18.75;;;16.75;;
10863;SDS011;5485;37.558;126.950;2023-04-03T16:17:04;18.98;;;17.10;;
10863;SDS011;5485;37.558;126.950;2023-04-03T16:19:33;22.35;;;16.17;;
10863;SDS011;5485;37.558;126.950;2023-04-03T16:22:03;19.45;;;16.60;;
10863;SDS011;5485;37.558;126.950;2023-04-03T16:24:30;18.85;;;16.88;;
10863;SDS011;5485;37.558;126.950;2023-04-03T16:26:57;19.38;;;17.35;;
10863;SDS011;5485;37.558;126.950;2023-04-03T16:29:24;18.08;;;16.27;;
10863;SDS011;5485;37.558;126.950;2023-04-03T16:31:54;18.92;;;16.67;;
10863;SDS011;5485;37.558;126.950;2023-04-03T16:34:22;19.13;;;17.02;;
10863;SDS011;5485;37.558;126.950;2023-04-03T16:36:51;20.98;;;16.30;;